createdAt,value
2022-10-18T00:00:23.592Z,68.40
2022-10-18T00:01:23.568Z,68.21
2022-10-18T00:02:23.574Z,68.21
2022-10-18T00:03:23.498Z,68.12
2022-10-18T00:04:23.460Z,68.21
2022-10-18T00:05:23.441Z,68.30
2022-10-18T00:06:23.398Z,68.30
2022-10-18T00:07:23.368Z,68.12
2022-10-18T00:08:23.346Z,68.30
2022-10-18T00:09:23.304Z,68.40
2022-10-18T00:10:23.275Z,67.92
2022-10-18T00:11:23.242Z,68.02
2022-10-18T00:12:23.209Z,68.12
2022-10-18T00:13:23.180Z,68.30
2022-10-18T00:14:23.148Z,68.30
2022-10-18T00:15:23.113Z,68.12
2022-10-18T00:16:23.082Z,68.50
2022-10-18T00:17:23.051Z,68.50
2022-10-18T00:18:23.014Z,67.92
2022-10-18T00:19:25.982Z,68.12
2022-10-18T00:20:22.954Z,67.73
2022-10-18T00:21:22.917Z,68.21
2022-10-18T00:22:22.891Z,68.30
2022-10-18T00:23:22.856Z,67.92
2022-10-18T00:24:22.829Z,68.12
2022-10-18T00:25:22.792Z,68.50
2022-10-18T00:26:22.762Z,70.23
2022-10-18T00:27:22.727Z,69.36
2022-10-18T00:28:22.887Z,68.59
2022-10-18T00:29:22.662Z,68.69
2022-10-18T00:30:22.636Z,68.59
2022-10-18T00:31:22.598Z,68.69
2022-10-18T00:32:22.566Z,68.79
2022-10-18T00:33:22.535Z,69.74
2022-10-18T00:34:22.501Z,72.14
2022-10-18T00:35:22.485Z,72.72
2022-10-18T00:36:22.439Z,71.76
2022-10-18T00:37:22.404Z,71.19
2022-10-18T00:38:22.374Z,70.51
2022-10-18T00:39:22.468Z,69.56
2022-10-18T00:40:22.347Z,68.98
2022-10-18T00:41:22.277Z,68.79
2022-10-18T00:42:22.260Z,68.56
2022-10-18T00:43:22.215Z,69.36
2022-10-18T00:44:22.181Z,68.75
2022-10-18T00:45:22.155Z,68.56
2022-10-18T00:46:22.403Z,68.79
2022-10-18T00:47:22.085Z,68.98
2022-10-18T00:48:22.053Z,69.36
2022-10-18T00:49:22.024Z,69.17
2022-10-18T00:50:21.988Z,68.79
2022-10-18T00:51:21.958Z,68.59
2022-10-18T00:52:21.925Z,68.98
2022-10-18T00:53:21.892Z,69.17
2022-10-18T00:54:21.863Z,69.36
2022-10-18T00:55:21.831Z,68.79
2022-10-18T00:56:21.801Z,68.30
2022-10-18T00:57:21.765Z,68.69
2022-10-18T00:58:21.734Z,70.51
2022-10-18T00:59:21.708Z,70.23
2022-10-18T01:00:21.669Z,69.36
2022-10-18T01:01:24.471Z,68.79
2022-10-18T01:02:21.607Z,68.88
2022-10-18T01:03:21.573Z,68.88
2022-10-18T01:04:21.541Z,68.88
2022-10-18T01:05:21.506Z,68.50
2022-10-18T01:06:21.482Z,68.79
2022-10-18T01:07:21.454Z,68.59
2022-10-18T01:08:21.414Z,68.40
2022-10-18T01:09:21.380Z,68.30
2022-10-18T01:10:21.349Z,68.50
2022-10-18T01:11:21.325Z,68.59
2022-10-18T01:12:21.285Z,68.69
2022-10-18T01:13:24.805Z,68.50
2022-10-18T01:14:21.316Z,68.69
2022-10-18T01:15:21.189Z,68.50
2022-10-18T01:16:21.162Z,68.59
2022-10-18T01:17:21.122Z,68.79
2022-10-18T01:18:21.099Z,68.88
2022-10-18T01:19:21.127Z,68.69
2022-10-18T01:20:21.030Z,68.69
2022-10-18T01:21:20.995Z,68.69
2022-10-18T01:22:20.965Z,68.50
2022-10-18T01:23:20.937Z,68.79
2022-10-18T01:24:20.904Z,70.90
2022-10-18T01:25:20.869Z,71.09
2022-10-18T01:26:20.834Z,71.37
2022-10-18T01:27:20.807Z,74.41
2022-10-18T01:28:20.777Z,74.51
2022-10-18T01:29:20.741Z,75.95
2022-10-18T01:30:20.712Z,78.53
2022-10-18T01:31:20.734Z,77.00
2022-10-18T01:32:20.645Z,75.43
2022-10-18T01:33:20.612Z,74.18
2022-10-18T01:34:20.585Z,73.55
2022-10-18T01:35:20.551Z,73.55
2022-10-18T01:36:20.568Z,71.53
2022-10-18T01:37:20.486Z,70.00
2022-10-18T01:38:20.454Z,69.71
2022-10-18T01:39:20.422Z,69.23
2022-10-18T01:40:20.386Z,68.75
2022-10-18T01:41:20.363Z,69.90
2022-10-18T01:42:20.323Z,72.11
2022-10-18T01:43:20.303Z,72.20
2022-10-18T01:44:20.268Z,73.16
2022-10-18T01:45:20.257Z,72.97
2022-10-18T01:46:20.200Z,70.86
2022-10-18T01:47:20.164Z,69.33
2022-10-18T01:48:20.136Z,68.95
2022-10-18T01:49:20.100Z,69.23
2022-10-18T01:50:20.068Z,68.95
2022-10-18T01:51:20.074Z,69.33
2022-10-18T01:52:20.006Z,70.86
2022-10-18T01:53:19.972Z,73.16
2022-10-18T01:54:19.953Z,72.49
2022-10-18T01:55:19.906Z,72.97
2022-10-18T01:56:19.878Z,72.39
2022-10-18T01:57:19.860Z,72.20
2022-10-18T01:58:19.810Z,71.82
2022-10-18T01:59:19.779Z,70.57
2022-10-18T02:00:19.777Z,68.56
2022-10-18T02:01:19.711Z,68.27
2022-10-18T02:02:19.680Z,67.22
2022-10-18T02:03:19.646Z,66.26
2022-10-18T02:04:19.620Z,65.39
2022-10-18T02:05:19.582Z,65.30
2022-10-18T02:06:19.553Z,64.34
2022-10-18T02:07:19.517Z,63.38
2022-10-18T02:08:23.403Z,63.00
2022-10-18T02:09:19.541Z,62.81
2022-10-18T02:10:19.434Z,67.79
2022-10-18T02:11:19.389Z,68.43
2022-10-18T02:12:19.361Z,67.47
2022-10-18T02:13:19.345Z,66.42
2022-10-18T02:14:19.292Z,65.75
2022-10-18T02:15:19.261Z,64.34
2022-10-18T02:16:19.254Z,63.29
2022-10-18T02:17:19.199Z,61.75
2022-10-18T02:18:19.194Z,61.56
2022-10-18T02:19:19.213Z,60.50
2022-10-18T02:20:19.105Z,60.60
2022-10-18T02:21:19.069Z,60.12
2022-10-18T02:22:19.040Z,59.36
2022-10-18T02:23:19.006Z,58.69
2022-10-18T02:24:18.976Z,57.24
2022-10-18T02:25:18.938Z,56.00
2022-10-18T02:26:18.911Z,55.62
2022-10-18T02:27:18.874Z,55.04
2022-10-18T02:28:18.913Z,54.94
2022-10-18T02:29:18.808Z,54.46
2022-10-18T02:30:18.779Z,53.99
2022-10-18T02:31:18.754Z,53.60
2022-10-18T02:32:18.714Z,53.12
2022-10-18T02:33:18.679Z,52.26
2022-10-18T02:34:18.647Z,52.83
2022-10-18T02:35:18.622Z,54.17
2022-10-18T02:36:18.596Z,54.37
2022-10-18T02:37:18.711Z,53.50
2022-10-18T02:38:18.526Z,53.41
2022-10-18T02:39:18.500Z,53.60
2022-10-18T02:40:18.455Z,53.41
2022-10-18T02:41:18.424Z,52.74
2022-10-18T02:42:18.392Z,51.68
2022-10-18T02:43:18.358Z,51.59
2022-10-18T02:44:18.323Z,51.40
2022-10-18T02:45:18.296Z,51.20
2022-10-18T02:46:18.280Z,50.43
2022-10-18T02:47:18.225Z,50.34
2022-10-18T02:48:18.197Z,49.76
2022-10-18T02:49:18.164Z,48.52
2022-10-18T02:50:18.130Z,48.61
2022-10-18T02:51:18.096Z,47.46
2022-10-18T02:52:18.076Z,47.37
2022-10-18T02:53:18.031Z,46.70
2022-10-18T02:54:17.999Z,46.50
2022-10-18T02:55:18.009Z,45.64
2022-10-18T02:56:17.941Z,45.36
2022-10-18T02:57:17.914Z,45.07
2022-10-18T02:58:17.871Z,46.22
2022-10-18T02:59:17.839Z,46.12
2022-10-18T03:00:17.807Z,48.13
2022-10-18T03:01:17.808Z,48.90
2022-10-18T03:02:17.744Z,49.10
2022-10-18T03:03:17.711Z,49.10
2022-10-18T03:04:17.744Z,48.61
2022-10-18T03:05:17.702Z,47.46
2022-10-18T03:06:17.617Z,47.17
2022-10-18T03:07:17.577Z,46.70
2022-10-18T03:08:17.546Z,46.60
2022-10-18T03:09:17.511Z,45.74
2022-10-18T03:10:17.484Z,44.11
2022-10-18T03:11:17.452Z,41.52
2022-10-18T03:12:17.417Z,40.56
2022-10-18T03:13:17.421Z,38.93
2022-10-18T03:14:17.552Z,38.35
2022-10-18T03:15:17.319Z,37.78
2022-10-18T03:16:17.294Z,37.20
2022-10-18T03:17:17.254Z,37.30
2022-10-18T03:18:17.219Z,36.91
2022-10-18T03:19:17.229Z,36.91
2022-10-18T03:20:17.157Z,36.53
2022-10-18T03:21:17.180Z,36.24
2022-10-18T03:22:17.154Z,36.05
2022-10-18T03:23:17.060Z,36.15
2022-10-18T03:24:17.026Z,36.63
2022-10-18T03:25:16.992Z,36.63
2022-10-18T03:26:16.963Z,36.63
2022-10-18T03:27:16.931Z,33.94
2022-10-18T03:28:16.908Z,32.51
2022-10-18T03:29:16.868Z,30.68
2022-10-18T03:30:16.842Z,29.53
2022-10-18T03:31:16.823Z,28.67
2022-10-18T03:32:16.768Z,28.86
2022-10-18T03:33:16.734Z,28.67
2022-10-18T03:34:16.704Z,28.48
2022-10-18T03:35:16.709Z,28.48
2022-10-18T03:36:16.640Z,28.48
2022-10-18T03:37:16.605Z,28.48
2022-10-18T03:38:16.577Z,28.57
2022-10-18T03:39:16.545Z,28.57
2022-10-18T03:40:16.513Z,28.67
2022-10-18T03:41:16.476Z,28.48
2022-10-18T03:42:16.446Z,28.57
2022-10-18T03:43:16.416Z,28.67
2022-10-18T03:44:16.381Z,29.05
2022-10-18T03:45:16.355Z,28.77
2022-10-18T03:46:16.390Z,28.67
2022-10-18T03:47:16.284Z,28.96
2022-10-18T03:48:16.254Z,29.72
2022-10-18T03:49:16.217Z,29.82
2022-10-18T03:50:16.192Z,30.01
2022-10-18T03:51:16.157Z,29.72
2022-10-18T03:52:16.127Z,30.01
2022-10-18T03:53:16.093Z,30.01
2022-10-18T03:54:16.064Z,30.01
2022-10-18T03:55:16.031Z,29.91
2022-10-18T03:56:15.995Z,29.82
2022-10-18T03:57:15.966Z,30.11
2022-10-18T03:58:15.931Z,29.91
2022-10-18T03:59:15.899Z,30.11
2022-10-18T04:00:15.867Z,30.30
2022-10-18T04:01:15.870Z,30.49
2022-10-18T04:02:15.821Z,30.40
2022-10-18T04:03:15.769Z,30.49
2022-10-18T04:04:15.733Z,30.30
2022-10-18T04:05:15.700Z,30.49
2022-10-18T04:06:15.669Z,30.49
2022-10-18T04:07:15.644Z,31.16
2022-10-18T04:08:15.608Z,30.87
2022-10-18T04:09:15.577Z,31.07
2022-10-18T04:10:15.549Z,31.35
2022-10-18T04:11:15.511Z,31.26
2022-10-18T04:12:15.480Z,31.64
2022-10-18T04:13:15.451Z,31.64
2022-10-18T04:14:15.419Z,32.12
2022-10-18T04:15:15.382Z,32.89
2022-10-18T04:16:15.348Z,33.27
2022-10-18T04:17:15.316Z,33.17
2022-10-18T04:18:15.287Z,33.27
2022-10-18T04:19:15.256Z,33.08
2022-10-18T04:20:15.228Z,33.27
2022-10-18T04:21:15.187Z,33.17
2022-10-18T04:22:15.158Z,34.33
2022-10-18T04:23:15.125Z,36.15
2022-10-18T04:24:15.102Z,36.24
2022-10-18T04:25:15.062Z,36.53
2022-10-18T04:26:15.032Z,36.05
2022-10-18T04:27:15.017Z,36.24
2022-10-18T04:28:14.960Z,36.15
2022-10-18T04:29:14.934Z,36.24
2022-10-18T04:30:14.922Z,36.44
2022-10-18T04:31:18.641Z,38.35
2022-10-18T04:32:14.837Z,39.03
2022-10-18T04:33:14.801Z,39.41
2022-10-18T04:34:14.773Z,40.47
2022-10-18T04:35:14.742Z,40.64
2022-10-18T04:36:14.705Z,41.50
2022-10-18T04:37:14.672Z,41.33
2022-10-18T04:38:14.649Z,40.83
2022-10-18T04:39:14.610Z,39.89
2022-10-18T04:40:14.635Z,39.22
2022-10-18T04:41:14.544Z,38.64
2022-10-18T04:42:14.512Z,38.26
2022-10-18T04:43:14.479Z,37.97
2022-10-18T04:44:14.526Z,38.26
2022-10-18T04:45:14.416Z,38.35
2022-10-18T04:46:14.380Z,38.16
2022-10-18T04:47:14.353Z,38.83
2022-10-18T04:48:14.319Z,39.87
2022-10-18T04:49:14.287Z,40.92
2022-10-18T04:50:14.252Z,42.65
2022-10-18T04:51:14.220Z,42.84
2022-10-18T04:52:14.198Z,41.78
2022-10-18T04:53:14.163Z,40.64
2022-10-18T04:54:14.124Z,39.77
2022-10-18T04:55:14.089Z,38.62
2022-10-18T04:56:14.061Z,38.16
2022-10-18T04:57:14.025Z,37.95
2022-10-18T04:58:13.992Z,38.53
2022-10-18T04:59:13.963Z,37.95
2022-10-18T05:00:13.932Z,37.97
2022-10-18T05:01:13.974Z,38.16
2022-10-18T05:02:13.864Z,38.16
2022-10-18T05:03:13.840Z,38.43
2022-10-18T05:04:13.803Z,38.62
2022-10-18T05:05:14.295Z,38.81
2022-10-18T05:06:13.740Z,38.72
2022-10-18T05:07:13.704Z,38.72
2022-10-18T05:08:13.673Z,38.53
2022-10-18T05:09:13.638Z,38.62
2022-10-18T05:10:13.615Z,38.91
2022-10-18T05:11:13.591Z,39.39
2022-10-18T05:12:13.541Z,39.77
2022-10-18T05:13:13.510Z,40.25
2022-10-18T05:14:13.474Z,39.87
2022-10-18T05:15:13.443Z,39.68
2022-10-18T05:16:13.411Z,39.77
2022-10-18T05:17:13.437Z,39.58
2022-10-18T05:18:13.345Z,39.68
2022-10-18T05:19:13.319Z,39.29
2022-10-18T05:21:13.250Z,39.58
2022-10-18T05:22:13.222Z,39.48
2022-10-18T05:23:13.189Z,39.39
2022-10-18T05:24:13.153Z,39.48
2022-10-18T05:25:13.123Z,38.91
2022-10-18T05:26:13.124Z,38.62
2022-10-18T05:27:13.056Z,38.34
2022-10-18T05:28:38.054Z,38.34
2022-10-18T05:29:13.094Z,38.24
2022-10-18T05:30:12.975Z,38.24
2022-10-18T05:31:13.058Z,37.20
2022-10-18T05:32:12.893Z,36.63
2022-10-18T05:33:12.867Z,36.53
2022-10-18T05:34:12.840Z,36.53
2022-10-18T05:35:12.853Z,36.24
2022-10-18T05:36:12.765Z,36.24
2022-10-18T05:37:12.802Z,36.15
2022-10-18T05:38:12.701Z,36.72
2022-10-18T05:39:12.667Z,37.30
2022-10-18T05:40:12.639Z,38.07
2022-10-18T05:41:12.601Z,38.16
2022-10-18T05:42:12.567Z,38.07
2022-10-18T05:43:12.541Z,38.07
2022-10-18T05:44:12.501Z,37.68
2022-10-18T05:45:12.472Z,37.30
2022-10-18T05:46:15.303Z,36.53
2022-10-18T05:47:12.407Z,36.82
2022-10-18T05:48:12.378Z,37.11
2022-10-18T05:49:12.357Z,37.30
2022-10-18T05:50:12.327Z,36.53
2022-10-18T05:51:12.283Z,36.44
2022-10-18T05:52:12.245Z,36.63
2022-10-18T05:53:24.747Z,36.53
2022-10-18T05:54:12.191Z,36.05
2022-10-18T05:55:12.187Z,36.44
2022-10-18T05:56:12.159Z,35.57
2022-10-18T05:57:12.085Z,35.19
2022-10-18T05:58:12.049Z,35.38
2022-10-18T05:59:12.298Z,35.67
2022-10-18T06:00:12.001Z,35.10
2022-10-18T06:01:11.955Z,35.38
2022-10-18T06:02:12.018Z,35.00
2022-10-18T06:03:11.890Z,34.81
2022-10-18T06:04:11.902Z,35.19
2022-10-18T06:05:11.827Z,35.48
2022-10-18T06:06:11.793Z,35.67
2022-10-18T06:07:11.763Z,35.96
2022-10-18T06:08:11.729Z,35.77
2022-10-18T06:09:11.782Z,35.67
2022-10-18T06:10:11.666Z,35.77
2022-10-18T06:11:11.637Z,35.48
2022-10-18T06:12:11.599Z,35.19
2022-10-18T06:13:11.570Z,35.28
2022-10-18T06:14:11.635Z,35.48
2022-10-18T06:15:11.502Z,35.28
2022-10-18T06:16:11.482Z,35.77
2022-10-18T06:17:11.440Z,35.86
2022-10-18T06:18:11.415Z,35.48
2022-10-18T06:19:11.405Z,35.67
2022-10-18T06:20:11.354Z,35.96
2022-10-18T06:21:11.314Z,35.67
2022-10-18T06:22:11.291Z,35.28
2022-10-18T06:23:11.250Z,35.48
2022-10-18T06:24:11.219Z,35.38
2022-10-18T06:25:11.186Z,35.67
2022-10-18T06:26:11.149Z,35.48
2022-10-18T06:27:11.121Z,35.28
2022-10-18T06:28:12.199Z,35.02
2022-10-18T06:29:11.145Z,35.28
2022-10-18T06:30:11.022Z,35.02
2022-10-18T06:31:10.992Z,34.61
2022-10-18T06:32:10.968Z,34.44
2022-10-18T06:33:10.925Z,34.44
2022-10-18T06:34:10.899Z,34.34
2022-10-18T06:35:10.886Z,34.15
2022-10-18T06:36:10.831Z,33.96
2022-10-18T06:37:10.804Z,34.25
2022-10-18T06:38:10.769Z,34.63
2022-10-18T06:39:10.733Z,34.44
2022-10-18T06:40:10.712Z,34.44
2022-10-18T06:41:10.674Z,35.02
2022-10-18T06:42:10.641Z,35.21
2022-10-18T06:43:20.680Z,35.97
2022-10-18T06:44:10.575Z,36.91
2022-10-18T06:45:10.546Z,38.07
2022-10-18T06:46:10.512Z,38.45
2022-10-18T06:47:10.480Z,39.31
2022-10-18T06:48:10.469Z,40.66
2022-10-18T06:49:12.039Z,41.33
2022-10-18T06:50:10.387Z,41.42
2022-10-18T06:51:10.351Z,41.13
2022-10-18T06:52:10.321Z,40.94
2022-10-18T06:53:10.295Z,40.27
2022-10-18T06:54:17.923Z,39.79
2022-10-18T06:55:10.221Z,40.27
2022-10-18T06:56:10.186Z,40.75
2022-10-18T06:57:10.152Z,40.94
2022-10-18T06:58:10.856Z,40.27
2022-10-18T06:59:10.093Z,40.27
2022-10-18T07:00:10.064Z,39.70
2022-10-18T07:01:10.075Z,39.31
2022-10-18T07:02:09.993Z,38.85
2022-10-18T07:03:09.966Z,38.56
2022-10-18T07:04:09.933Z,39.41
2022-10-18T07:05:09.905Z,41.61
2022-10-18T07:06:09.870Z,42.96
2022-10-18T07:07:09.841Z,43.05
2022-10-18T07:08:09.850Z,42.67
2022-10-18T07:09:09.769Z,43.15
2022-10-18T07:10:12.949Z,42.47
2022-10-18T07:11:09.728Z,42.77
2022-10-18T07:12:09.682Z,43.05
2022-10-18T07:13:33.182Z,43.15
2022-10-18T07:14:12.720Z,42.67
2022-10-18T07:15:09.804Z,42.67
2022-10-18T07:16:11.545Z,42.96
2022-10-18T07:17:09.514Z,43.53
2022-10-18T07:18:09.479Z,43.34
2022-10-18T07:19:09.448Z,42.77
2022-10-18T07:20:09.417Z,42.19
2022-10-18T07:21:09.397Z,41.61
2022-10-18T07:22:09.350Z,41.42
2022-10-18T07:23:09.323Z,41.80
2022-10-18T07:24:09.284Z,41.42
2022-10-18T07:25:09.258Z,41.23
2022-10-18T07:26:09.275Z,40.17
2022-10-18T07:27:09.200Z,39.60
2022-10-18T07:28:09.160Z,39.04
2022-10-18T07:29:09.287Z,38.66
2022-10-18T07:30:09.096Z,38.56
2022-10-18T07:31:09.105Z,39.50
2022-10-18T07:32:09.058Z,39.60
2022-10-18T07:33:09.000Z,40.00
2022-10-18T07:34:08.969Z,40.66
2022-10-18T07:35:09.057Z,43.73
2022-10-18T07:36:08.906Z,44.01
2022-10-18T07:37:08.872Z,43.05
2022-10-18T07:38:08.844Z,41.61
2022-10-18T07:39:08.807Z,41.54
2022-10-18T07:40:08.845Z,40.67
2022-10-18T07:41:08.744Z,40.39
2022-10-18T07:42:08.709Z,40.39
2022-10-18T07:43:11.980Z,40.29
2022-10-18T07:44:08.650Z,39.91
2022-10-18T07:45:08.643Z,41.83
2022-10-18T07:46:08.582Z,41.35
2022-10-18T07:47:08.554Z,43.82
2022-10-18T07:48:08.519Z,44.49
2022-10-18T07:49:08.515Z,46.22
2022-10-18T07:50:08.455Z,44.87
2022-10-18T07:51:08.421Z,45.07
2022-10-18T07:52:08.386Z,44.49
2022-10-18T07:53:08.366Z,44.01
2022-10-18T07:54:08.321Z,44.97
2022-10-18T07:55:08.291Z,45.54
2022-10-18T07:56:09.650Z,45.54
2022-10-18T07:57:08.239Z,44.68
2022-10-18T07:58:08.197Z,44.59
2022-10-18T07:59:08.170Z,43.53
2022-10-18T08:00:08.145Z,43.05
2022-10-18T08:01:08.145Z,44.30
2022-10-18T08:02:08.071Z,46.22
2022-10-18T08:03:08.040Z,45.26
2022-10-18T08:04:11.594Z,44.20
2022-10-18T08:05:07.971Z,43.07
2022-10-18T08:06:07.941Z,42.77
2022-10-18T08:07:07.908Z,43.07
2022-10-18T08:08:08.224Z,44.87
2022-10-18T08:09:07.850Z,46.24
2022-10-18T08:10:07.814Z,46.60
2022-10-18T08:11:07.788Z,46.60
2022-10-18T08:12:07.749Z,45.67
2022-10-18T08:13:07.722Z,44.68
2022-10-18T08:14:07.681Z,44.70
2022-10-18T08:15:07.729Z,45.54
2022-10-18T08:16:07.632Z,45.64
2022-10-18T08:17:07.586Z,45.76
2022-10-18T08:18:07.557Z,45.57
2022-10-18T08:19:07.524Z,46.31
2022-10-18T08:20:12.078Z,47.46
2022-10-18T08:21:07.459Z,46.34
2022-10-18T08:22:07.479Z,45.57
2022-10-18T08:23:07.390Z,44.70
2022-10-18T08:24:07.370Z,44.13
2022-10-18T08:25:07.370Z,44.51
2022-10-18T08:26:07.302Z,46.81
2022-10-18T08:27:07.266Z,48.16
2022-10-18T08:28:07.238Z,48.90
2022-10-18T08:29:21.892Z,49.31
2022-10-18T08:30:07.211Z,50.63
2022-10-18T08:31:07.139Z,51.23
2022-10-18T08:32:07.106Z,51.04
2022-10-18T08:33:07.078Z,51.30
2022-10-18T08:34:07.042Z,51.01
2022-10-18T08:35:08.668Z,50.05
2022-10-18T08:36:06.978Z,51.30
2022-10-18T08:37:06.943Z,51.30
2022-10-18T08:38:06.915Z,51.10
2022-10-18T08:39:06.884Z,50.37
2022-10-18T08:40:06.851Z,51.10
2022-10-18T08:41:06.820Z,50.17
2022-10-18T08:42:06.795Z,50.08
2022-10-18T08:43:06.778Z,50.43
2022-10-18T08:44:07.448Z,51.10
2022-10-18T08:45:12.778Z,49.98
2022-10-18T08:46:06.665Z,50.34
2022-10-18T08:47:06.645Z,51.68
2022-10-18T08:48:06.597Z,52.16
2022-10-18T08:49:06.672Z,51.59
2022-10-18T08:50:06.533Z,51.97
2022-10-18T08:51:06.505Z,51.87
2022-10-18T08:52:06.466Z,50.43
2022-10-18T08:53:06.433Z,52.07
2022-10-18T08:54:06.402Z,50.82
2022-10-18T08:55:06.377Z,49.79
2022-10-18T08:56:06.387Z,49.96
2022-10-18T08:57:06.309Z,50.53
2022-10-18T08:58:06.282Z,51.59
2022-10-18T08:59:06.239Z,50.92
2022-10-18T09:00:06.218Z,50.53
2022-10-18T09:01:06.175Z,50.15
2022-10-18T09:02:06.142Z,49.10
2022-10-18T09:03:06.192Z,50.24
2022-10-18T09:04:06.079Z,51.10
2022-10-18T09:05:06.048Z,51.30
2022-10-18T09:06:06.016Z,51.10
2022-10-18T09:07:05.983Z,50.05
2022-10-18T09:08:05.953Z,50.05
2022-10-18T09:09:05.919Z,48.43
2022-10-18T09:10:05.896Z,49.96
2022-10-18T09:11:05.862Z,49.86
2022-10-18T09:12:05.832Z,49.96
2022-10-18T09:13:05.796Z,49.10
2022-10-18T09:14:05.757Z,48.61
2022-10-18T09:15:05.727Z,49.19
2022-10-18T09:16:05.698Z,48.43
2022-10-18T09:17:05.666Z,48.61
2022-10-18T09:18:05.629Z,47.56
2022-10-18T09:19:05.598Z,47.27
2022-10-18T09:20:05.576Z,49.00
2022-10-18T09:21:05.536Z,48.13
2022-10-18T09:22:07.513Z,47.10
2022-10-18T09:23:05.503Z,47.20
2022-10-18T09:24:05.439Z,47.87
2022-10-18T09:25:05.401Z,50.56
2022-10-18T09:26:05.369Z,51.20
2022-10-18T09:27:05.338Z,49.60
2022-10-18T09:28:05.364Z,49.88
2022-10-18T09:29:05.452Z,51.10
2022-10-18T09:30:05.248Z,51.23
2022-10-18T09:31:05.213Z,50.92
2022-10-18T09:32:05.180Z,50.08
2022-10-18T09:33:05.151Z,48.83
2022-10-18T09:34:05.132Z,50.94
2022-10-18T09:35:05.085Z,51.32
2022-10-18T09:36:05.053Z,51.59
2022-10-18T09:37:05.963Z,50.27
2022-10-18T09:38:04.989Z,48.74
2022-10-18T09:39:04.980Z,47.49
2022-10-18T09:40:04.921Z,49.88
2022-10-18T09:41:04.908Z,51.42
2022-10-18T09:42:04.859Z,50.08
2022-10-18T09:43:04.828Z,51.14
2022-10-18T09:44:04.801Z,52.19
2022-10-18T09:45:04.761Z,50.65
2022-10-18T09:46:04.730Z,51.51
2022-10-18T09:47:04.699Z,51.90
2022-10-18T09:48:04.666Z,52.67
2022-10-18T09:49:04.636Z,52.76
2022-10-18T09:50:05.497Z,52.19
2022-10-18T09:51:04.573Z,50.56
2022-10-18T09:52:04.540Z,49.69
2022-10-18T09:53:04.519Z,52.28
2022-10-18T09:54:04.488Z,52.19
2022-10-18T09:55:04.455Z,50.56
2022-10-18T09:56:04.410Z,53.44
2022-10-18T09:57:04.382Z,53.44
2022-10-18T09:58:04.353Z,54.58
2022-10-18T09:59:04.324Z,53.82
2022-10-18T10:00:04.288Z,52.76
2022-10-18T10:01:04.254Z,52.86
2022-10-18T10:02:04.256Z,53.34
2022-10-18T10:03:04.190Z,55.45
2022-10-18T10:04:04.168Z,54.21
2022-10-18T10:05:04.158Z,53.63
2022-10-18T10:06:04.103Z,52.38
2022-10-18T10:07:04.070Z,52.89
2022-10-18T10:08:04.031Z,53.66
2022-10-18T10:09:04.004Z,52.79
2022-10-18T10:10:03.968Z,51.73
2022-10-18T10:11:03.945Z,56.24
2022-10-18T10:12:03.913Z,55.47
2022-10-18T10:13:03.872Z,53.46
2022-10-18T10:14:03.879Z,52.50
2022-10-18T10:15:03.811Z,51.45
2022-10-18T10:16:03.793Z,52.69
2022-10-18T10:17:03.747Z,56.15
2022-10-18T10:18:04.662Z,58.07
2022-10-18T10:19:03.693Z,58.07
2022-10-18T10:20:03.647Z,61.14
2022-10-18T10:21:03.625Z,62.87
2022-10-18T10:22:03.592Z,61.33
2022-10-18T10:23:03.556Z,59.12
2022-10-18T10:24:03.525Z,60.47
2022-10-18T10:25:03.508Z,60.38
2022-10-18T10:26:03.461Z,61.24
2022-10-18T10:27:03.434Z,61.52
2022-10-18T10:28:03.398Z,66.03
2022-10-18T10:29:03.441Z,65.46
2022-10-18T10:30:07.113Z,62.77
2022-10-18T10:31:03.342Z,63.16
2022-10-18T10:32:03.271Z,65.56
2022-10-18T10:33:03.269Z,64.98
2022-10-18T10:34:03.213Z,65.65
2022-10-18T10:35:03.173Z,63.73
2022-10-18T10:36:03.151Z,62.77
2022-10-18T10:37:03.112Z,64.89
2022-10-18T10:38:03.115Z,63.73
2022-10-18T10:39:03.051Z,63.25
2022-10-18T10:40:19.903Z,62.48
2022-10-18T10:41:02.989Z,63.35
2022-10-18T10:42:04.934Z,62.58
2022-10-18T10:43:18.300Z,62.19
2022-10-18T10:44:02.897Z,63.54
2022-10-18T10:45:02.868Z,63.45
2022-10-18T10:46:02.837Z,65.46
2022-10-18T10:47:02.799Z,63.54
2022-10-18T10:48:02.774Z,62.39
2022-10-18T10:49:35.047Z,62.68
2022-10-18T10:50:02.703Z,63.73
2022-10-18T10:51:02.676Z,64.31
2022-10-18T10:52:15.458Z,63.73
2022-10-18T10:53:02.609Z,63.45
2022-10-18T10:54:02.635Z,63.45
2022-10-18T10:55:16.952Z,64.22
2022-10-18T10:56:02.549Z,64.22
2022-10-18T10:57:02.484Z,63.92
2022-10-18T10:58:02.447Z,63.64
2022-10-18T10:59:02.516Z,65.36
2022-10-18T11:00:02.394Z,63.35
2022-10-18T11:01:02.357Z,65.08
2022-10-18T11:02:02.321Z,65.65
2022-10-18T11:03:10.983Z,67.67
2022-10-18T11:04:02.355Z,68.24
2022-10-18T11:05:02.233Z,67.57
2022-10-18T11:06:02.349Z,66.90
2022-10-18T11:07:02.166Z,67.09
2022-10-18T11:08:02.136Z,66.42
2022-10-18T11:09:02.114Z,67.19
2022-10-18T11:10:02.070Z,64.79
2022-10-18T11:11:02.103Z,63.92
2022-10-18T11:12:02.007Z,64.31
2022-10-18T11:13:01.993Z,67.00
2022-10-18T11:14:21.157Z,67.19
2022-10-18T11:15:01.916Z,65.88
2022-10-18T11:16:01.911Z,64.53
2022-10-18T11:17:05.544Z,67.03
2022-10-18T11:18:01.847Z,64.15
2022-10-18T11:19:01.786Z,64.15
2022-10-18T11:20:01.761Z,68.57
2022-10-18T11:21:01.729Z,69.53
2022-10-18T11:22:01.690Z,70.49
2022-10-18T11:23:01.732Z,69.91
2022-10-18T11:24:01.721Z,71.00
2022-10-18T11:25:01.599Z,75.13
2022-10-18T11:26:01.567Z,73.02
2022-10-18T11:27:01.536Z,75.27
2022-10-18T11:28:01.509Z,75.81
2022-10-18T11:29:01.514Z,78.44
2022-10-18T11:30:01.451Z,78.15
2022-10-18T11:31:01.415Z,78.92
2022-10-18T11:32:01.379Z,81.46
2022-10-18T11:33:01.346Z,79.25
2022-10-18T11:34:09.246Z,84.34
2022-10-18T11:35:01.285Z,88.19
2022-10-18T11:36:03.752Z,86.56
2022-10-18T11:37:26.665Z,90.21
2022-10-18T11:38:01.193Z,87.95
2022-10-18T11:39:01.164Z,87.95
2022-10-18T11:40:01.135Z,89.68
2022-10-18T11:41:01.111Z,90.93
2022-10-18T11:42:01.073Z,92.08
2022-10-18T11:43:01.062Z,89.20
2022-10-18T11:44:03.017Z,92.38
2022-10-18T11:45:00.981Z,91.13
2022-10-18T11:46:00.953Z,92.08
2022-10-18T11:47:00.929Z,92.47
2022-10-18T11:48:00.889Z,89.01
2022-10-18T11:49:00.859Z,91.70
2022-10-18T11:50:00.833Z,91.89
2022-10-18T11:51:00.800Z,92.43
2022-10-18T11:52:08.373Z,91.36
2022-10-18T11:53:00.744Z,90.26
2022-10-18T11:54:00.716Z,91.56
2022-10-18T11:55:00.679Z,88.24
2022-10-18T11:56:00.649Z,92.13
2022-10-18T11:57:00.617Z,90.69
2022-10-18T11:58:00.587Z,89.06
2022-10-18T11:59:00.559Z,92.71
2022-10-18T12:00:00.534Z,92.71
2022-10-18T12:01:00.496Z,89.25
2022-10-18T12:02:00.469Z,91.08
2022-10-18T12:03:00.497Z,93.19
2022-10-18T12:04:00.415Z,90.84
2022-10-18T12:05:27.011Z,92.61
2022-10-18T12:06:00.350Z,91.52
2022-10-18T12:07:00.316Z,92.67
2022-10-18T12:08:00.285Z,91.90
2022-10-18T12:09:00.255Z,89.98
2022-10-18T12:10:00.239Z,89.40
2022-10-18T12:11:05.043Z,89.98
2022-10-18T12:12:00.177Z,89.78
2022-10-18T12:13:00.139Z,91.22
2022-10-18T12:14:00.140Z,90.94
2022-10-18T12:15:00.077Z,91.80
2022-10-18T12:16:00.042Z,87.86
2022-10-18T12:17:27.920Z,88.24
2022-10-18T12:17:59.978Z,90.45
2022-10-18T12:18:59.953Z,90.51
2022-10-18T12:19:59.920Z,89.30
2022-10-18T12:20:59.897Z,88.82
2022-10-18T12:21:59.863Z,89.59
2022-10-18T12:22:59.829Z,92.09
2022-10-18T12:23:59.801Z,88.67
2022-10-18T12:24:59.768Z,90.89
2022-10-18T12:25:59.845Z,91.75
2022-10-18T12:26:59.771Z,91.31
2022-10-18T12:28:59.672Z,92.95
2022-10-18T12:29:59.615Z,90.73
2022-10-18T12:30:59.730Z,94.59
2022-10-18T12:31:59.550Z,94.01
2022-10-18T12:33:03.716Z,94.97
2022-10-18T12:33:59.494Z,94.78
2022-10-18T12:34:59.468Z,95.74
2022-10-18T12:35:59.432Z,95.65
2022-10-18T12:36:59.441Z,94.78
2022-10-18T12:37:59.383Z,94.78
2022-10-18T12:38:59.343Z,95.50
2022-10-18T12:40:18.522Z,96.22
2022-10-18T12:40:59.286Z,95.50
2022-10-18T12:41:59.255Z,93.53
2022-10-18T12:42:59.225Z,94.21
2022-10-18T12:43:59.190Z,94.30
2022-10-18T12:44:59.162Z,94.88
2022-10-18T12:45:59.134Z,94.88
2022-10-18T12:46:59.111Z,94.88
2022-10-18T12:47:59.147Z,94.64
2022-10-18T12:48:59.039Z,94.88
2022-10-18T12:49:59.013Z,92.71
2022-10-18T12:50:58.986Z,91.66
2022-10-18T12:51:59.032Z,96.08
2022-10-18T12:52:58.919Z,93.24
2022-10-18T12:53:58.885Z,96.89